sensor_id;sensor_type;location;lat;lon;timestamp;pressure;altitude;pressure_sealevel;temperature;humidity
40574;BME280;26283;49.020;8.644;2023-06-04T00:02:08;99244.06;;;23.41;44.34
40574;BME280;26283;49.020;8.644;2023-06-04T00:04:34;99245.50;;;23.39;44.27
40574;BME280;26283;49.020;8.644;2023-06-04T00:06:59;99250.19;;;23.38;44.25
40574;BME280;26283;49.020;8.644;2023-06-04T00:09:25;99242.25;;;23.37;44.14
40574;BME280;26283;49.020;8.644;2023-06-04T00:11:50;99247.25;;;23.35;44.08
40574;BME280;26283;49.020;8.644;2023-06-04T00:14:15;99243.66;;;23.34;44.02
40574;BME280;26283;49.020;8.644;2023-06-04T00:16:41;99241.22;;;23.33;43.98
40574;BME280;26283;49.020;8.644;2023-06-04T00:19:08;99239.59;;;23.32;43.94
40574;BME280;26283;49.020;8.644;2023-06-04T00:21:33;99239.87;;;23.30;43.92
40574;BME280;26283;49.020;8.644;2023-06-04T00:24:00;99239.87;;;23.30;43.82
40574;BME280;26283;49.020;8.644;2023-06-04T00:26:26;99243.75;;;23.29;43.75
40574;BME280;26283;49.020;8.644;2023-06-04T00:28:51;99237.75;;;23.27;43.69
40574;BME280;26283;49.020;8.644;2023-06-04T00:31:16;99232.53;;;23.25;43.57
40574;BME280;26283;49.020;8.644;2023-06-04T00:33:42;99241.09;;;23.24;43.53
40574;BME280;26283;49.020;8.644;2023-06-04T00:36:08;99234.78;;;23.23;43.44
40574;BME280;26283;49.020;8.644;2023-06-04T00:38:33;99246.87;;;23.22;43.33
40574;BME280;26283;49.020;8.644;2023-06-04T00:40:59;99242.50;;;23.21;43.21
40574;BME280;26283;49.020;8.644;2023-06-04T00:43:24;99245.25;;;23.21;43.10
40574;BME280;26283;49.020;8.644;2023-06-04T00:45:52;99244.44;;;23.21;43.06
40574;BME280;26283;49.020;8.644;2023-06-04T00:48:18;99243.62;;;23.20;43.02
40574;BME280;26283;49.020;8.644;2023-06-04T00:50:44;99250.25;;;23.19;42.95
40574;BME280;26283;49.020;8.644;2023-06-04T00:53:09;99243.94;;;23.19;42.89
40574;BME280;26283;49.020;8.644;2023-06-04T00:55:36;99249.72;;;23.17;42.85
40574;BME280;26283;49.020;8.644;2023-06-04T00:58:01;99240.66;;;23.17;42.82
40574;BME280;26283;49.020;8.644;2023-06-04T01:00:29;99245.38;;;23.16;42.77
40574;BME280;26283;49.020;8.644;2023-06-04T01:02:55;99249.22;;;23.15;42.76
40574;BME280;26283;49.020;8.644;2023-06-04T01:05:29;99253.09;;;23.14;42.76
40574;BME280;26283;49.020;8.644;2023-06-04T01:07:57;99255.03;;;23.14;42.85
40574;BME280;26283;49.020;8.644;2023-06-04T01:10:23;99260.00;;;23.12;42.70
40574;BME280;26283;49.020;8.644;2023-06-04T01:12:48;99260.00;;;23.12;42.64
40574;BME280;26283;49.020;8.644;2023-06-04T01:15:13;99261.13;;;23.11;42.59
40574;BME280;26283;49.020;8.644;2023-06-04T01:17:44;99261.44;;;23.09;42.59
40574;BME280;26283;49.020;8.644;2023-06-04T01:25:36;99264.78;;;23.06;42.52
40574;BME280;26283;49.020;8.644;2023-06-04T01:28:05;99262.31;;;23.05;42.54
40574;BME280;26283;49.020;8.644;2023-06-04T01:30:32;99264.25;;;23.04;42.45
40574;BME280;26283;49.020;8.644;2023-06-04T01:32:59;99270.88;;;23.03;42.48
40574;BME280;26283;49.020;8.644;2023-06-04T01:35:26;99277.47;;;23.02;42.47
40574;BME280;26283;49.020;8.644;2023-06-04T01:37:51;99270.34;;;23.01;42.46
40574;BME280;26283;49.020;8.644;2023-06-04T01:40:18;99275.84;;;23.01;42.49
40574;BME280;26283;49.020;8.644;2023-06-04T01:42:43;99270.66;;;23.00;42.43
40574;BME280;26283;49.020;8.644;2023-06-04T01:45:09;99271.75;;;22.99;42.45
40574;BME280;26283;49.020;8.644;2023-06-04T01:47:35;99276.44;;;22.98;42.43
40574;BME280;26283;49.020;8.644;2023-06-04T01:50:01;99278.66;;;22.96;42.37
40574;BME280;26283;49.020;8.644;2023-06-04T01:52:27;99276.25;;;22.95;42.47
40574;BME280;26283;49.020;8.644;2023-06-04T01:54:52;99275.44;;;22.94;42.42
40574;BME280;26283;49.020;8.644;2023-06-04T01:57:19;99273.78;;;22.93;42.40
40574;BME280;26283;49.020;8.644;2023-06-04T01:59:45;99279.28;;;22.93;42.38
40574;BME280;26283;49.020;8.644;2023-06-04T02:02:12;99274.91;;;22.92;42.34
40574;BME280;26283;49.020;8.644;2023-06-04T02:04:37;99271.34;;;22.92;42.32
40574;BME280;26283;49.020;8.644;2023-06-04T02:07:06;99271.66;;;22.90;42.36
40574;BME280;26283;49.020;8.644;2023-06-04T02:09:32;99273.88;;;22.88;42.27
40574;BME280;26283;49.020;8.644;2023-06-04T02:11:57;99275.00;;;22.87;42.21
40574;BME280;26283;49.020;8.644;2023-06-04T02:14:22;99272.25;;;22.87;42.17
40574;BME280;26283;49.020;8.644;2023-06-04T02:16:48;99272.53;;;22.85;42.17
40574;BME280;26283;49.020;8.644;2023-06-04T02:19:15;99269.78;;;22.85;42.06
40574;BME280;26283;49.020;8.644;2023-06-04T02:21:40;99272.84;;;22.84;42.10
40574;BME280;26283;49.020;8.644;2023-06-04T02:24:06;99270.37;;;22.82;42.00
40574;BME280;26283;49.020;8.644;2023-06-04T02:26:31;99265.19;;;22.81;41.97
40574;BME280;26283;49.020;8.644;2023-06-04T02:28:57;99265.19;;;22.81;41.94
40574;BME280;26283;49.020;8.644;2023-06-04T02:31:22;99269.03;;;22.80;42.01
40574;BME280;26283;49.020;8.644;2023-06-04T02:33:48;99270.16;;;22.79;42.01
40574;BME280;26283;49.020;8.644;2023-06-04T02:36:13;99274.84;;;22.78;41.89
40574;BME280;26283;49.020;8.644;2023-06-04T02:38:38;99270.44;;;22.77;41.89
40574;BME280;26283;49.020;8.644;2023-06-04T02:41:04;99275.09;;;22.77;41.77
40574;BME280;26283;49.020;8.644;2023-06-04T02:43:29;99278.97;;;22.76;41.72
40574;BME280;26283;49.020;8.644;2023-06-04T02:45:54;99274.56;;;22.75;41.69
40574;BME280;26283;49.020;8.644;2023-06-04T02:48:20;99267.16;;;22.75;41.66
40574;BME280;26283;49.020;8.644;2023-06-04T02:50:45;99271.34;;;22.73;41.60
40574;BME280;26283;49.020;8.644;2023-06-04T02:53:10;99270.53;;;22.72;41.49
40574;BME280;26283;49.020;8.644;2023-06-04T02:55:36;99277.13;;;22.71;41.47
40574;BME280;26283;49.020;8.644;2023-06-04T02:58:01;99282.91;;;22.70;41.43
40574;BME280;26283;49.020;8.644;2023-06-04T03:00:27;99281.00;;;22.70;41.50
40574;BME280;26283;49.020;8.644;2023-06-04T03:02:53;99282.41;;;22.68;41.47
40574;BME280;26283;49.020;8.644;2023-06-04T03:05:27;99280.75;;;22.67;41.50
40574;BME280;26283;49.020;8.644;2023-06-04T03:07:52;99276.37;;;22.66;41.44
40574;BME280;26283;49.020;8.644;2023-06-04T03:10:18;99276.69;;;22.64;41.43
40574;BME280;26283;49.020;8.644;2023-06-04T03:12:44;99292.34;;;22.64;41.50
40574;BME280;26283;49.020;8.644;2023-06-04T03:15:10;99291.53;;;22.63;41.49
40574;BME280;26283;49.020;8.644;2023-06-04T03:17:35;99292.63;;;22.62;41.53
40574;BME280;26283;49.020;8.644;2023-06-04T03:20:01;99294.56;;;22.62;41.46
40574;BME280;26283;49.020;8.644;2023-06-04T03:22:28;99295.69;;;22.61;41.43
40574;BME280;26283;49.020;8.644;2023-06-04T03:24:54;99297.91;;;22.58;41.33
40574;BME280;26283;49.020;8.644;2023-06-04T03:27:20;99300.66;;;22.58;41.31
40574;BME280;26283;49.020;8.644;2023-06-04T03:29:45;99298.19;;;22.57;41.37
40574;BME280;26283;49.020;8.644;2023-06-04T03:32:12;99304.81;;;22.56;41.41
40574;BME280;26283;49.020;8.644;2023-06-04T03:34:38;99302.34;;;22.54;41.47
40574;BME280;26283;49.020;8.644;2023-06-04T03:37:03;99310.06;;;22.52;41.45
40574;BME280;26283;49.020;8.644;2023-06-04T03:39:29;99307.31;;;22.52;41.38
40574;BME280;26283;49.020;8.644;2023-06-04T03:41:54;99304.56;;;22.52;41.39
40574;BME280;26283;49.020;8.644;2023-06-04T03:44:21;99306.00;;;22.50;41.41
40574;BME280;26283;49.020;8.644;2023-06-04T03:46:46;99305.19;;;22.49;41.42
40574;BME280;26283;49.020;8.644;2023-06-04T03:49:13;99305.47;;;22.48;41.39
40574;BME280;26283;49.020;8.644;2023-06-04T03:51:39;99310.16;;;22.47;41.34
40574;BME280;26283;49.020;8.644;2023-06-04T03:54:05;99307.72;;;22.46;41.28
40574;BME280;26283;49.020;8.644;2023-06-04T03:56:31;99301.41;;;22.45;41.31
40574;BME280;26283;49.020;8.644;2023-06-04T03:58:56;99309.09;;;22.43;41.29
40574;BME280;26283;49.020;8.644;2023-06-04T04:01:22;99312.97;;;22.42;41.25
40574;BME280;26283;49.020;8.644;2023-06-04T04:03:49;99303.91;;;22.42;41.28
40574;BME280;26283;49.020;8.644;2023-06-04T04:06:15;99309.69;;;22.40;41.33
40574;BME280;26283;49.020;8.644;2023-06-04T04:08:41;99308.06;;;22.39;41.35
40574;BME280;26283;49.020;8.644;2023-06-04T04:11:11;99320.16;;;22.38;41.39
40574;BME280;26283;49.020;8.644;2023-06-04T04:13:37;99313.03;;;22.37;41.55
40574;BME280;26283;49.020;8.644;2023-06-04T04:16:02;99325.13;;;22.36;41.35
40574;BME280;26283;49.020;8.644;2023-06-04T04:18:28;99317.19;;;22.35;41.45
40574;BME280;26283;49.020;8.644;2023-06-04T04:20:57;99324.59;;;22.34;41.53
40574;BME280;26283;49.020;8.644;2023-06-04T04:23:22;99324.06;;;22.32;41.48
40574;BME280;26283;49.020;8.644;2023-06-04T04:25:48;99322.44;;;22.31;41.54
40574;BME280;26283;49.020;8.644;2023-06-04T04:28:14;99325.50;;;22.30;41.59
40574;BME280;26283;49.020;8.644;2023-06-04T04:30:39;99328.53;;;22.28;41.58
40574;BME280;26283;49.020;8.644;2023-06-04T04:33:05;99330.47;;;22.28;41.63
40574;BME280;26283;49.020;8.644;2023-06-04T04:35:31;99330.75;;;22.26;41.70
40574;BME280;26283;49.020;8.644;2023-06-04T04:38:00;99336.25;;;22.26;41.72
40574;BME280;26283;49.020;8.644;2023-06-04T04:40:29;99329.41;;;22.23;41.87
40574;BME280;26283;49.020;8.644;2023-06-04T04:42:55;99331.34;;;22.23;41.82
40574;BME280;26283;49.020;8.644;2023-06-04T04:45:21;99330.53;;;22.22;41.86
40574;BME280;26283;49.020;8.644;2023-06-04T04:47:47;99328.06;;;22.21;41.84
40574;BME280;26283;49.020;8.644;2023-06-04T04:50:18;99336.31;;;22.21;41.85
40574;BME280;26283;49.020;8.644;2023-06-04T04:52:46;99340.97;;;22.20;41.94
40574;BME280;26283;49.020;8.644;2023-06-04T04:55:14;99343.19;;;22.18;41.97
40574;BME280;26283;49.020;8.644;2023-06-04T04:57:42;99342.38;;;22.18;41.88
40574;BME280;26283;49.020;8.644;2023-06-04T05:00:08;99338.00;;;22.17;41.90
40574;BME280;26283;49.020;8.644;2023-06-04T05:02:35;99339.09;;;22.16;42.01
40574;BME280;26283;49.020;8.644;2023-06-04T05:05:19;99346.50;;;22.15;42.06
40574;BME280;26283;49.020;8.644;2023-06-04T05:07:44;99338.56;;;22.14;42.13
40574;BME280;26283;49.020;8.644;2023-06-04T05:10:23;99338.87;;;22.12;42.15
40574;BME280;26283;49.020;8.644;2023-06-04T05:12:57;99340.78;;;22.12;42.34
40574;BME280;26283;49.020;8.644;2023-06-04T05:18:48;99343.00;;;22.10;42.29
40574;BME280;26283;49.020;8.644;2023-06-04T05:22:06;99351.56;;;22.08;42.34
40574;BME280;26283;49.020;8.644;2023-06-04T05:25:10;99345.31;;;22.03;42.72
40574;BME280;26283;49.020;8.644;2023-06-04T05:28:09;99356.81;;;22.05;42.51
40574;BME280;26283;49.020;8.644;2023-06-04T05:30:43;99363.41;;;22.04;42.52
40574;BME280;26283;49.020;8.644;2023-06-04T05:33:09;99365.34;;;22.03;42.48
40574;BME280;26283;49.020;8.644;2023-06-04T05:35:49;99363.97;;;22.01;42.51
40574;BME280;26283;49.020;8.644;2023-06-04T05:38:15;99376.03;;;22.00;42.73
40574;BME280;26283;49.020;8.644;2023-06-04T05:40:51;99368.91;;;21.99;42.63
40574;BME280;26283;49.020;8.644;2023-06-04T05:43:17;99376.31;;;21.98;42.69
40574;BME280;26283;49.020;8.644;2023-06-04T05:45:43;99371.13;;;21.97;42.71
40574;BME280;26283;49.020;8.644;2023-06-04T05:48:09;99379.34;;;21.97;42.70
40574;BME280;26283;49.020;8.644;2023-06-04T05:50:34;99381.56;;;21.95;42.75
40574;BME280;26283;49.020;8.644;2023-06-04T05:53:00;99378.81;;;21.95;42.76
40574;BME280;26283;49.020;8.644;2023-06-04T05:55:25;99373.63;;;21.93;42.81
40574;BME280;26283;49.020;8.644;2023-06-04T05:57:50;99370.06;;;21.93;42.79
40574;BME280;26283;49.020;8.644;2023-06-04T06:00:17;99378.28;;;21.93;42.73
40574;BME280;26283;49.020;8.644;2023-06-04T06:02:42;99380.22;;;21.92;42.87
40574;BME280;26283;49.020;8.644;2023-06-04T06:05:08;99380.50;;;21.90;42.89
40574;BME280;26283;49.020;8.644;2023-06-04T06:07:34;99382.44;;;21.90;43.05
40574;BME280;26283;49.020;8.644;2023-06-04T06:10:00;99378.88;;;21.89;43.02
40574;BME280;26283;49.020;8.644;2023-06-04T06:12:26;99387.38;;;21.88;43.21
40574;BME280;26283;49.020;8.644;2023-06-04T06:14:51;99378.34;;;21.87;43.27
40574;BME280;26283;49.020;8.644;2023-06-04T06:17:17;99384.97;;;21.86;43.32
40574;BME280;26283;49.020;8.644;2023-06-04T06:19:42;99380.59;;;21.85;43.39
40574;BME280;26283;49.020;8.644;2023-06-04T06:22:07;99383.31;;;21.85;43.38
40574;BME280;26283;49.020;8.644;2023-06-04T06:24:33;99385.25;;;21.85;43.52
40574;BME280;26283;49.020;8.644;2023-06-04T06:26:59;99395.41;;;21.84;43.53
40574;BME280;26283;49.020;8.644;2023-06-04T06:29:24;99404.75;;;21.83;43.46
40574;BME280;26283;49.020;8.644;2023-06-04T06:31:50;99398.44;;;21.83;43.48
40574;BME280;26283;49.020;8.644;2023-06-04T06:34:15;99392.13;;;21.82;43.51
40574;BME280;26283;49.020;8.644;2023-06-04T06:36:41;99394.06;;;21.82;43.55
40574;BME280;26283;49.020;8.644;2023-06-04T06:39:07;99396.81;;;21.82;43.52
40574;BME280;26283;49.020;8.644;2023-06-04T06:41:32;99397.09;;;21.80;43.76
40574;BME280;26283;49.020;8.644;2023-06-04T08:55:18;99416.16;;;22.25;47.75
40574;BME280;26283;49.020;8.644;2023-06-04T08:57:44;99426.56;;;22.28;47.74
40574;BME280;26283;49.020;8.644;2023-06-04T09:00:10;99424.84;;;22.32;47.72
40574;BME280;26283;49.020;8.644;2023-06-04T09:02:37;99428.94;;;22.34;47.66
40574;BME280;26283;49.020;8.644;2023-06-04T09:05:04;99428.87;;;22.39;47.60
40574;BME280;26283;49.020;8.644;2023-06-04T09:07:30;99425.53;;;22.42;47.55
40574;BME280;26283;49.020;8.644;2023-06-04T09:09:56;99424.97;;;22.45;47.53
40574;BME280;26283;49.020;8.644;2023-06-04T09:12:27;99425.50;;;22.47;47.49
40574;BME280;26283;49.020;8.644;2023-06-04T09:14:56;99430.41;;;22.50;47.44
40574;BME280;26283;49.020;8.644;2023-06-04T09:17:22;99433.34;;;22.54;47.38
40574;BME280;26283;49.020;8.644;2023-06-04T09:19:49;99437.44;;;22.56;47.35
40574;BME280;26283;49.020;8.644;2023-06-04T09:22:15;99434.12;;;22.60;47.33
40574;BME280;26283;49.020;8.644;2023-06-04T09:24:45;99438.22;;;22.62;47.29
40574;BME280;26283;49.020;8.644;2023-06-04T09:27:21;99429.37;;;22.65;47.24
40574;BME280;26283;49.020;8.644;2023-06-04T09:29:57;99437.34;;;22.67;47.16
40574;BME280;26283;49.020;8.644;2023-06-04T09:32:30;99437.28;;;22.72;47.11
40574;BME280;26283;49.020;8.644;2023-06-04T09:35:08;99433.91;;;22.75;47.07
40574;BME280;26283;49.020;8.644;2023-06-04T09:37:35;99432.81;;;22.76;47.00
40574;BME280;26283;49.020;8.644;2023-06-04T09:40:00;99431.44;;;22.78;46.95
40574;BME280;26283;49.020;8.644;2023-06-04T09:42:26;99431.66;;;22.82;46.93
40574;BME280;26283;49.020;8.644;2023-06-04T09:44:52;99432.19;;;22.84;46.87
40574;BME280;26283;49.020;8.644;2023-06-04T09:47:17;99429.69;;;22.87;46.84
40574;BME280;26283;49.020;8.644;2023-06-04T09:49:46;99431.03;;;22.90;46.81
40574;BME280;26283;49.020;8.644;2023-06-04T09:52:13;99420.56;;;22.92;46.76
40574;BME280;26283;49.020;8.644;2023-06-04T09:54:39;99420.75;;;22.96;46.70
40574;BME280;26283;49.020;8.644;2023-06-04T09:57:19;99429.22;;;22.99;46.64
40574;BME280;26283;49.020;8.644;2023-06-04T09:59:51;99430.28;;;23.03;46.58
40574;BME280;26283;49.020;8.644;2023-06-04T10:02:29;99422.03;;;23.03;46.55
40574;BME280;26283;49.020;8.644;2023-06-04T10:04:58;99423.09;;;23.07;46.54
40574;BME280;26283;49.020;8.644;2023-06-04T10:07:25;99426.34;;;23.09;46.46
40574;BME280;26283;49.020;8.644;2023-06-04T10:10:08;99434.31;;;23.11;46.43
40574;BME280;26283;49.020;8.644;2023-06-04T10:12:42;99418.03;;;23.14;46.37
40574;BME280;26283;49.020;8.644;2023-06-04T10:15:16;99424.06;;;23.16;46.30
40574;BME280;26283;49.020;8.644;2023-06-04T10:17:46;99430.88;;;23.19;46.27
40574;BME280;26283;49.020;8.644;2023-06-04T10:20:12;99423.44;;;23.19;46.20
40574;BME280;26283;49.020;8.644;2023-06-04T10:22:38;99423.38;;;23.24;46.17
40574;BME280;26283;49.020;8.644;2023-06-04T10:25:04;99425.00;;;23.25;46.12
40574;BME280;26283;49.020;8.644;2023-06-04T10:27:37;99418.09;;;23.28;46.05
40574;BME280;26283;49.020;8.644;2023-06-04T10:30:04;99416.69;;;23.31;46.02
40574;BME280;26283;49.020;8.644;2023-06-04T10:32:30;99420.47;;;23.35;45.92
40574;BME280;26283;49.020;8.644;2023-06-04T10:34:56;99415.50;;;23.37;45.86
40574;BME280;26283;49.020;8.644;2023-06-04T10:37:26;99417.62;;;23.40;45.84
40574;BME280;26283;49.020;8.644;2023-06-04T10:40:02;99416.22;;;23.42;45.76
40574;BME280;26283;49.020;8.644;2023-06-04T10:42:41;99418.38;;;23.45;45.71
40574;BME280;26283;49.020;8.644;2023-06-04T10:45:08;99409.53;;;23.48;45.64
40574;BME280;26283;49.020;8.644;2023-06-04T10:47:35;99419.41;;;23.49;45.59
40574;BME280;26283;49.020;8.644;2023-06-04T10:50:10;99410.59;;;23.52;45.57
40574;BME280;26283;49.020;8.644;2023-06-04T10:52:37;99405.59;;;23.54;45.54
40574;BME280;26283;49.020;8.644;2023-06-04T10:55:04;99402.56;;;23.56;45.52
40574;BME280;26283;49.020;8.644;2023-06-04T10:57:30;99409.69;;;23.57;45.47
40574;BME280;26283;49.020;8.644;2023-06-04T10:59:57;99409.88;;;23.61;45.45
40574;BME280;26283;49.020;8.644;2023-06-04T11:02:24;99402.97;;;23.63;45.43
40574;BME280;26283;49.020;8.644;2023-06-04T11:05:04;99404.59;;;23.64;45.42
40574;BME280;26283;49.020;8.644;2023-06-04T11:08:01;99406.75;;;23.67;45.35
40574;BME280;26283;49.020;8.644;2023-06-04T11:10:35;99408.09;;;23.70;45.27
40574;BME280;26283;49.020;8.644;2023-06-04T11:13:02;99406.16;;;23.70;45.25
40574;BME280;26283;49.020;8.644;2023-06-04T11:15:39;99401.19;;;23.72;45.28
40574;BME280;26283;49.020;8.644;2023-06-04T11:18:05;99401.69;;;23.74;45.21
40574;BME280;26283;49.020;8.644;2023-06-04T11:20:30;99402.22;;;23.76;45.17
40574;BME280;26283;49.020;8.644;2023-06-04T11:22:57;99404.66;;;23.78;45.20
40574;BME280;26283;49.020;8.644;2023-06-04T11:25:24;99407.13;;;23.79;45.17
40574;BME280;26283;49.020;8.644;2023-06-04T11:27:52;99404.38;;;23.79;45.24
40574;BME280;26283;49.020;8.644;2023-06-04T11:30:18;99402.44;;;23.80;45.23
40574;BME280;26283;49.020;8.644;2023-06-04T11:32:44;99414.75;;;23.82;45.27
40574;BME280;26283;49.020;8.644;2023-06-04T11:35:09;99403.72;;;23.82;45.28
40574;BME280;26283;49.020;8.644;2023-06-04T11:37:36;99411.69;;;23.84;45.23
40574;BME280;26283;49.020;8.644;2023-06-04T18:14:37;99284.94;;;24.57;46.07
40574;BME280;26283;49.020;8.644;2023-06-04T18:17:03;99283.31;;;24.56;46.10
40574;BME280;26283;49.020;8.644;2023-06-04T18:19:28;99284.94;;;24.57;46.09
40574;BME280;26283;49.020;8.644;2023-06-04T18:21:54;99284.94;;;24.57;46.08
40574;BME280;26283;49.020;8.644;2023-06-04T18:24:19;99291.78;;;24.60;46.09
40574;BME280;26283;49.020;8.644;2023-06-04T18:26:45;99296.47;;;24.59;46.09
40574;BME280;26283;49.020;8.644;2023-06-04T18:29:10;99288.22;;;24.59;46.10
40574;BME280;26283;49.020;8.644;2023-06-04T18:31:35;99289.84;;;24.60;46.10
40574;BME280;26283;49.020;8.644;2023-06-04T18:34:01;99294.53;;;24.60;46.11
40574;BME280;26283;49.020;8.644;2023-06-04T18:36:27;99295.34;;;24.60;46.11
40574;BME280;26283;49.020;8.644;2023-06-04T18:38:53;99296.16;;;24.61;46.12
40574;BME280;26283;49.020;8.644;2023-06-04T18:41:20;99298.13;;;24.60;46.13
40574;BME280;26283;49.020;8.644;2023-06-04T18:43:47;99293.72;;;24.59;46.14
40574;BME280;26283;49.020;8.644;2023-06-04T18:46:16;99298.13;;;24.60;46.15
40574;BME280;26283;49.020;8.644;2023-06-04T18:48:42;99297.28;;;24.60;46.17
40574;BME280;26283;49.020;8.644;2023-06-04T18:51:07;99296.47;;;24.59;46.20
40574;BME280;26283;49.020;8.644;2023-06-04T18:53:33;99297.59;;;24.58;46.21
40574;BME280;26283;49.020;8.644;2023-06-04T18:56:02;99300.34;;;24.58;46.23
40574;BME280;26283;49.020;8.644;2023-06-04T18:58:27;99292.09;;;24.58;46.26
40574;BME280;26283;49.020;8.644;2023-06-04T19:00:53;99295.97;;;24.57;46.29
40574;BME280;26283;49.020;8.644;2023-06-04T19:03:19;99298.72;;;24.57;46.31
40574;BME280;26283;49.020;8.644;2023-06-04T19:05:49;99301.47;;;24.57;46.32
40574;BME280;26283;49.020;8.644;2023-06-04T19:08:18;99306.19;;;24.57;46.35
40574;BME280;26283;49.020;8.644;2023-06-04T19:10:44;99306.19;;;24.57;46.37
40574;BME280;26283;49.020;8.644;2023-06-04T19:13:11;99302.59;;;24.56;46.38
40574;BME280;26283;49.020;8.644;2023-06-04T19:15:37;99298.22;;;24.55;46.41
40574;BME280;26283;49.020;8.644;2023-06-04T19:18:03;99299.84;;;24.56;46.42
40574;BME280;26283;49.020;8.644;2023-06-04T19:20:31;99305.66;;;24.55;46.43
40574;BME280;26283;49.020;8.644;2023-06-04T19:22:56;99302.91;;;24.55;46.45
40574;BME280;26283;49.020;8.644;2023-06-04T19:25:21;99307.59;;;24.54;46.46
40574;BME280;26283;49.020;8.644;2023-06-04T19:27:47;99314.75;;;24.55;46.49
40574;BME280;26283;49.020;8.644;2023-06-04T19:30:14;99309.25;;;24.55;46.51
40574;BME280;26283;49.020;8.644;2023-06-04T19:32:40;99315.87;;;24.54;46.52
40574;BME280;26283;49.020;8.644;2023-06-04T19:35:05;99318.94;;;24.53;46.54
40574;BME280;26283;49.020;8.644;2023-06-04T19:37:31;99322.50;;;24.53;46.56
40574;BME280;26283;49.020;8.644;2023-06-04T19:39:56;99321.69;;;24.53;46.58
40574;BME280;26283;49.020;8.644;2023-06-04T19:42:22;99320.88;;;24.52;46.59
40574;BME280;26283;49.020;8.644;2023-06-04T19:44:48;99326.38;;;24.52;46.61
40574;BME280;26283;49.020;8.644;2023-06-04T19:47:13;99331.06;;;24.52;46.63
40574;BME280;26283;49.020;8.644;2023-06-04T19:49:38;99328.63;;;24.50;46.64
40574;BME280;26283;49.020;8.644;2023-06-04T19:52:04;99327.50;;;24.51;46.67
40574;BME280;26283;49.020;8.644;2023-06-04T19:54:30;99344.03;;;24.51;46.69
40574;BME280;26283;49.020;8.644;2023-06-04T19:56:55;99345.16;;;24.50;46.70
40574;BME280;26283;49.020;8.644;2023-06-04T19:59:21;99341.59;;;24.50;46.71
40574;BME280;26283;49.020;8.644;2023-06-04T20:01:46;99346.28;;;24.49;46.73
40574;BME280;26283;49.020;8.644;2023-06-04T20:04:12;99348.22;;;24.49;46.74
40574;BME280;26283;49.020;8.644;2023-06-04T20:06:37;99360.06;;;24.49;46.75
40574;BME280;26283;49.020;8.644;2023-06-04T20:09:03;99350.16;;;24.48;46.77
40574;BME280;26283;49.020;8.644;2023-06-04T20:11:29;99352.09;;;24.48;46.79
40574;BME280;26283;49.020;8.644;2023-06-04T20:13:57;99356.78;;;24.47;46.81
40574;BME280;26283;49.020;8.644;2023-06-04T20:16:22;99357.59;;;24.48;46.82
40574;BME280;26283;49.020;8.644;2023-06-04T20:18:48;99358.72;;;24.47;46.84
40574;BME280;26283;49.020;8.644;2023-06-04T20:21:14;99359.88;;;24.46;46.87
40574;BME280;26283;49.020;8.644;2023-06-04T20:23:39;99365.38;;;24.46;46.88
40574;BME280;26283;49.020;8.644;2023-06-04T20:26:08;99361.81;;;24.45;46.89
40574;BME280;26283;49.020;8.644;2023-06-04T20:28:34;99364.56;;;24.45;46.91
40574;BME280;26283;49.020;8.644;2023-06-04T20:30:59;99373.97;;;24.44;46.93
40574;BME280;26283;49.020;8.644;2023-06-04T20:33:25;99366.81;;;24.43;46.95
40574;BME280;26283;49.020;8.644;2023-06-04T20:35:51;99368.75;;;24.43;46.96
40574;BME280;26283;49.020;8.644;2023-06-04T20:38:17;99371.00;;;24.41;46.99
40574;BME280;26283;49.020;8.644;2023-06-04T20:40:43;99374.25;;;24.43;47.00
40574;BME280;26283;49.020;8.644;2023-06-04T20:43:08;99373.44;;;24.42;47.02
40574;BME280;26283;49.020;8.644;2023-06-04T20:45:33;99365.78;;;24.39;47.03
40574;BME280;26283;49.020;8.644;2023-06-04T20:47:59;99361.91;;;24.40;47.06
40574;BME280;26283;49.020;8.644;2023-06-04T20:50:24;99345.37;;;24.40;46.58
40574;BME280;26283;49.020;8.644;2023-06-04T20:52:50;99347.84;;;24.42;45.29
40574;BME280;26283;49.020;8.644;2023-06-04T20:55:15;99346.50;;;24.39;44.91
40574;BME280;26283;49.020;8.644;2023-06-04T20:57:42;99349.88;;;24.36;44.76
40574;BME280;26283;49.020;8.644;2023-06-04T21:00:07;99343.84;;;24.34;44.66
40574;BME280;26283;49.020;8.644;2023-06-04T21:02:33;99349.97;;;24.31;44.54
40574;BME280;26283;49.020;8.644;2023-06-04T21:04:58;99343.13;;;24.29;44.47
40574;BME280;26283;49.020;8.644;2023-06-04T21:07:23;99352.00;;;24.25;44.36
40574;BME280;26283;49.020;8.644;2023-06-04T21:09:49;99344.09;;;24.24;44.36
40574;BME280;26283;49.020;8.644;2023-06-04T21:12:14;99351.81;;;24.22;44.30
40574;BME280;26283;49.020;8.644;2023-06-04T21:14:39;99352.41;;;24.19;44.22
40574;BME280;26283;49.020;8.644;2023-06-04T21:17:05;99348.03;;;24.18;44.12
40574;BME280;26283;49.020;8.644;2023-06-04T21:19:30;99344.75;;;24.16;44.09
40574;BME280;26283;49.020;8.644;2023-06-04T21:21:56;99353.31;;;24.14;44.00
40574;BME280;26283;49.020;8.644;2023-06-04T21:24:21;99346.47;;;24.12;43.88
40574;BME280;26283;49.020;8.644;2023-06-04T21:26:46;99353.09;;;24.11;43.84
40574;BME280;26283;49.020;8.644;2023-06-04T21:29:12;99349.84;;;24.09;43.70
40574;BME280;26283;49.020;8.644;2023-06-04T21:31:37;99352.91;;;24.07;43.59
40574;BME280;26283;49.020;8.644;2023-06-04T21:34:02;99354.31;;;24.05;43.44
40574;BME280;26283;49.020;8.644;2023-06-04T21:36:28;99348.00;;;24.04;43.46
40574;BME280;26283;49.020;8.644;2023-06-04T21:38:53;99353.03;;;24.02;43.44
40574;BME280;26283;49.020;8.644;2023-06-04T21:41:19;99354.97;;;24.02;43.47
40574;BME280;26283;49.020;8.644;2023-06-04T21:43:45;99356.06;;;24.01;43.38
40574;BME280;26283;49.020;8.644;2023-06-04T21:46:10;99360.25;;;23.98;43.36
40574;BME280;26283;49.020;8.644;2023-06-04T21:48:36;99357.00;;;23.96;43.30
40574;BME280;26283;49.020;8.644;2023-06-04T21:51:01;99358.91;;;23.96;43.36
40574;BME280;26283;49.020;8.644;2023-06-04T21:53:26;99358.41;;;23.93;43.29
40574;BME280;26283;49.020;8.644;2023-06-04T21:55:52;99363.09;;;23.93;43.29